Sardis, OH (43946)

4:31 AM EDT on September 16, 2014 (GMT -0400)
Kidwell, WV | Change Station
CLOSE
Current Station
Personal Weather Station
Location: Sistersville, WV
Elevation: 738 ft
Nearby Weather Stations

Elev 738 ft 39.54 °N, 80.89 °W | Updated 10 minutes ago

Overcast
Overcast
56.8 °F
Feels Like 56.8 °F
N
0.0
Wind Variable Wind from SSW

Today
High -- | Low -- °F
--% Chance of Precip.
Yesterday
High -- | Low -- °F
Precip. -- in
7:05 AM 7:30 PM
Waning Gibbous, 47% visible
Pressure 30.10 in
Visibility 10.0 miles
Clouds Overcast 5500 ft
Dew Point 56 °F
Humidity 96%
Rainfall 0.00 in
Snow Depth Not available.
UV 0 out of 12
Pollen 3.70 out of 12
Air Quality Not available.
Flu Activity Not available.
METAR KPKB 160753Z AUTO 27003KT 10SM -RA OVC055 14/13 A3011 RMK AO2 SLP193 P0003 T01390128

More Conditions Fewer Conditions

Pressure 30.10 in
Visibility 10.0 miles
Clouds Overcast 5500 ft
Dew Point 56 °F
Humidity 96%
Rainfall 0.00 in
Snow Depth Not available.
UV 0 out of 12
Pollen 3.70 out of 12
Air Quality Not available.
Flu Activity Not available.
METAR KPKB 160753Z AUTO 27003KT 10SM -RA OVC055 14/13 A3011 RMK AO2 SLP193 P0003 T01390128

More Conditions Fewer Conditions

10-Day Weather Forecast

Almanac

Astronomy

Sep. 16, 2014 Rise Set
Actual Time 7:05 AM EDT 7:30 PM EDT
Civil Twilight 6:38 AM EDT 7:57 PM EDT
Nautical Twilight 6:07 AM EDT 8:29 PM EDT
Astronomical Twilight 5:34 AM EDT 9:01 PM EDT
Moon 12:15 AM EDT 2:52 PM EDT
Length of Visible Light 13h 18m
Length of Day
12h 24m
Tomorrow will be 2m 35s shorter.
Waning Gibbous, 47% of the Moon is Illuminated
Today
Waning Gibbous
Sep 24
New
Oct 1
First Quarter
Oct 8
Full
Oct 15
Last Quarter

Today's Extremes

State Highs State Lows

Community

WunderPhotos

Upload Photos

1,753,712 photos uploaded!

WunderBlogs® & News

Nearby

Snow Depth

Station Depth Elevation
No new snow has been reported.

Earthquake Activity

City Distance Mag. Time & Date
No recent earthquake activity has been reported nearby.
Minimum magnitude displayed is 2.5.

Coastal Water Temperatures

Place Temperature
No Stations Reporting

Nearby Weather Stations